sensor_id;sensor_type;location;lat;lon;timestamp;temperature;humidity
13354;DHT22;6746;50.892;4.064;2022-07-09T00:02:32;17.70;99.90
13354;DHT22;6746;50.892;4.064;2022-07-09T00:05:21;17.60;99.90
13354;DHT22;6746;50.892;4.064;2022-07-09T00:07:59;17.60;99.90
13354;DHT22;6746;50.892;4.064;2022-07-09T00:10:37;17.50;99.90
13354;DHT22;6746;50.892;4.064;2022-07-09T00:13:16;17.50;99.90
13354;DHT22;6746;50.892;4.064;2022-07-09T00:15:54;17.40;99.90
13354;DHT22;6746;50.892;4.064;2022-07-09T00:18:35;17.40;99.90
13354;DHT22;6746;50.892;4.064;2022-07-09T00:21:13;17.40;99.90
13354;DHT22;6746;50.892;4.064;2022-07-09T00:23:51;17.40;99.90
13354;DHT22;6746;50.892;4.064;2022-07-09T00:26:30;17.30;99.90
13354;DHT22;6746;50.892;4.064;2022-07-09T00:29:10;17.30;99.90
13354;DHT22;6746;50.892;4.064;2022-07-09T00:31:49;17.20;99.90
13354;DHT22;6746;50.892;4.064;2022-07-09T00:34:29;17.20;99.90
13354;DHT22;6746;50.892;4.064;2022-07-09T00:37:07;17.20;99.90
13354;DHT22;6746;50.892;4.064;2022-07-09T00:39:46;17.10;99.90
13354;DHT22;6746;50.892;4.064;2022-07-09T00:42:24;17.00;99.90
13354;DHT22;6746;50.892;4.064;2022-07-09T00:45:12;17.00;99.90
13354;DHT22;6746;50.892;4.064;2022-07-09T00:48:00;17.00;99.90
13354;DHT22;6746;50.892;4.064;2022-07-09T00:50:48;16.90;99.90
13354;DHT22;6746;50.892;4.064;2022-07-09T00:53:27;16.90;99.90
13354;DHT22;6746;50.892;4.064;2022-07-09T00:56:05;16.90;99.90
13354;DHT22;6746;50.892;4.064;2022-07-09T00:58:43;16.80;99.90
13354;DHT22;6746;50.892;4.064;2022-07-09T01:01:22;16.80;99.90
13354;DHT22;6746;50.892;4.064;2022-07-09T01:04:05;16.70;99.90
13354;DHT22;6746;50.892;4.064;2022-07-09T01:06:43;16.70;99.90
13354;DHT22;6746;50.892;4.064;2022-07-09T01:09:21;16.70;99.90
13354;DHT22;6746;50.892;4.064;2022-07-09T01:11:59;16.70;99.90
13354;DHT22;6746;50.892;4.064;2022-07-09T01:14:45;16.70;99.90
13354;DHT22;6746;50.892;4.064;2022-07-09T01:17:24;16.60;99.90
13354;DHT22;6746;50.892;4.064;2022-07-09T01:20:12;16.60;99.90
13354;DHT22;6746;50.892;4.064;2022-07-09T01:22:56;16.70;99.90
13354;DHT22;6746;50.892;4.064;2022-07-09T01:25:37;16.80;99.90
13354;DHT22;6746;50.892;4.064;2022-07-09T01:28:24;16.80;99.90
13354;DHT22;6746;50.892;4.064;2022-07-09T01:31:12;16.90;99.90
13354;DHT22;6746;50.892;4.064;2022-07-09T01:34:01;17.00;99.90
13354;DHT22;6746;50.892;4.064;2022-07-09T01:36:49;17.00;99.90
13354;DHT22;6746;50.892;4.064;2022-07-09T01:39:32;17.00;99.90
13354;DHT22;6746;50.892;4.064;2022-07-09T01:42:11;17.00;99.90
13354;DHT22;6746;50.892;4.064;2022-07-09T01:44:49;17.00;99.90
13354;DHT22;6746;50.892;4.064;2022-07-09T01:47:27;17.00;99.90
13354;DHT22;6746;50.892;4.064;2022-07-09T01:50:15;17.00;99.90
13354;DHT22;6746;50.892;4.064;2022-07-09T01:53:04;16.90;99.90
13354;DHT22;6746;50.892;4.064;2022-07-09T01:55:47;16.90;99.90
13354;DHT22;6746;50.892;4.064;2022-07-09T01:58:26;16.80;99.90
13354;DHT22;6746;50.892;4.064;2022-07-09T02:01:12;16.80;99.90
13354;DHT22;6746;50.892;4.064;2022-07-09T02:03:50;16.70;99.90
13354;DHT22;6746;50.892;4.064;2022-07-09T02:06:31;16.70;99.90
13354;DHT22;6746;50.892;4.064;2022-07-09T02:09:09;16.70;99.90
13354;DHT22;6746;50.892;4.064;2022-07-09T02:11:47;16.60;99.90
13354;DHT22;6746;50.892;4.064;2022-07-09T02:14:26;16.70;99.90
13354;DHT22;6746;50.892;4.064;2022-07-09T02:17:14;16.70;99.90
13354;DHT22;6746;50.892;4.064;2022-07-09T02:19:52;16.70;99.90
13354;DHT22;6746;50.892;4.064;2022-07-09T02:22:31;16.70;99.90
13354;DHT22;6746;50.892;4.064;2022-07-09T02:25:18;16.70;99.90
13354;DHT22;6746;50.892;4.064;2022-07-09T02:28:02;16.70;99.90
13354;DHT22;6746;50.892;4.064;2022-07-09T02:30:40;16.60;99.90
13354;DHT22;6746;50.892;4.064;2022-07-09T02:33:21;16.60;99.90
13354;DHT22;6746;50.892;4.064;2022-07-09T02:35:59;16.60;99.90
13354;DHT22;6746;50.892;4.064;2022-07-09T02:38:47;16.60;99.90
13354;DHT22;6746;50.892;4.064;2022-07-09T02:41:25;16.50;99.90
13354;DHT22;6746;50.892;4.064;2022-07-09T02:44:03;16.50;99.90
13354;DHT22;6746;50.892;4.064;2022-07-09T02:46:51;16.50;99.90
13354;DHT22;6746;50.892;4.064;2022-07-09T02:49:29;16.50;99.90
13354;DHT22;6746;50.892;4.064;2022-07-09T02:52:07;16.50;99.90
13354;DHT22;6746;50.892;4.064;2022-07-09T02:54:48;16.50;99.90
13354;DHT22;6746;50.892;4.064;2022-07-09T02:57:26;16.50;99.90
13354;DHT22;6746;50.892;4.064;2022-07-09T03:00:14;16.50;99.90
13354;DHT22;6746;50.892;4.064;2022-07-09T03:03:02;16.50;99.90
13354;DHT22;6746;50.892;4.064;2022-07-09T03:05:51;16.40;99.90
13354;DHT22;6746;50.892;4.064;2022-07-09T03:08:39;16.40;99.90
13354;DHT22;6746;50.892;4.064;2022-07-09T03:11:27;16.40;99.90
13354;DHT22;6746;50.892;4.064;2022-07-09T03:14:15;16.40;99.90
13354;DHT22;6746;50.892;4.064;2022-07-09T03:16:57;16.40;99.90
13354;DHT22;6746;50.892;4.064;2022-07-09T03:19:35;16.40;99.90
13354;DHT22;6746;50.892;4.064;2022-07-09T03:22:16;16.40;99.90
13354;DHT22;6746;50.892;4.064;2022-07-09T03:24:54;16.40;99.90
13354;DHT22;6746;50.892;4.064;2022-07-09T03:27:35;16.30;99.90
13354;DHT22;6746;50.892;4.064;2022-07-09T03:30:13;16.30;99.90
13354;DHT22;6746;50.892;4.064;2022-07-09T03:33:01;16.30;99.90
13354;DHT22;6746;50.892;4.064;2022-07-09T03:35:45;16.30;99.90
13354;DHT22;6746;50.892;4.064;2022-07-09T03:38:24;16.30;99.90
13354;DHT22;6746;50.892;4.064;2022-07-09T03:41:12;16.30;99.90
13354;DHT22;6746;50.892;4.064;2022-07-09T03:43:50;16.30;99.90
13354;DHT22;6746;50.892;4.064;2022-07-09T03:46:28;16.40;99.90
13354;DHT22;6746;50.892;4.064;2022-07-09T03:49:06;16.40;99.90
13354;DHT22;6746;50.892;4.064;2022-07-09T03:51:45;16.40;99.90
13354;DHT22;6746;50.892;4.064;2022-07-09T03:54:24;16.50;99.90
13354;DHT22;6746;50.892;4.064;2022-07-09T03:56:54;16.50;99.90
13354;DHT22;6746;50.892;4.064;2022-07-09T03:59:30;16.50;99.90
13354;DHT22;6746;50.892;4.064;2022-07-09T04:01:59;16.50;99.90
13354;DHT22;6746;50.892;4.064;2022-07-09T04:04:37;16.50;99.90
13354;DHT22;6746;50.892;4.064;2022-07-09T04:07:16;16.50;99.90
13354;DHT22;6746;50.892;4.064;2022-07-09T04:09:54;16.40;99.90
13354;DHT22;6746;50.892;4.064;2022-07-09T04:12:32;16.30;99.90
13354;DHT22;6746;50.892;4.064;2022-07-09T04:15:10;16.20;99.90
13354;DHT22;6746;50.892;4.064;2022-07-09T04:17:43;16.20;99.90
13354;DHT22;6746;50.892;4.064;2022-07-09T04:20:12;16.10;99.90
13354;DHT22;6746;50.892;4.064;2022-07-09T04:22:41;16.10;99.90
13354;DHT22;6746;50.892;4.064;2022-07-09T04:25:10;16.10;99.90
13354;DHT22;6746;50.892;4.064;2022-07-09T04:27:48;16.20;99.90
13354;DHT22;6746;50.892;4.064;2022-07-09T04:30:28;16.20;99.90
13354;DHT22;6746;50.892;4.064;2022-07-09T04:32:56;16.30;99.90
13354;DHT22;6746;50.892;4.064;2022-07-09T04:35:28;16.40;99.90
13354;DHT22;6746;50.892;4.064;2022-07-09T04:38:06;16.40;99.90
13354;DHT22;6746;50.892;4.064;2022-07-09T04:40:43;16.50;99.90
13354;DHT22;6746;50.892;4.064;2022-07-09T04:43:12;16.60;99.90
13354;DHT22;6746;50.892;4.064;2022-07-09T04:45:46;16.60;99.90
13354;DHT22;6746;50.892;4.064;2022-07-09T04:48:14;16.90;99.90
13354;DHT22;6746;50.892;4.064;2022-07-09T04:50:53;17.10;99.90
13354;DHT22;6746;50.892;4.064;2022-07-09T04:53:24;17.40;99.90
13354;DHT22;6746;50.892;4.064;2022-07-09T04:55:53;17.50;99.90
13354;DHT22;6746;50.892;4.064;2022-07-09T04:58:30;17.50;99.90
13354;DHT22;6746;50.892;4.064;2022-07-09T05:00:59;17.60;99.90
13354;DHT22;6746;50.892;4.064;2022-07-09T05:03:38;17.60;99.90
13354;DHT22;6746;50.892;4.064;2022-07-09T05:06:16;17.70;99.90
13354;DHT22;6746;50.892;4.064;2022-07-09T05:08:49;17.70;99.90
13354;DHT22;6746;50.892;4.064;2022-07-09T05:11:18;17.80;99.90
13354;DHT22;6746;50.892;4.064;2022-07-09T05:13:52;17.90;99.90
13354;DHT22;6746;50.892;4.064;2022-07-09T05:16:21;18.60;99.90
13354;DHT22;6746;50.892;4.064;2022-07-09T05:18:59;19.30;99.90
13354;DHT22;6746;50.892;4.064;2022-07-09T05:21:47;19.80;99.90
13354;DHT22;6746;50.892;4.064;2022-07-09T05:24:25;20.40;99.90
13354;DHT22;6746;50.892;4.064;2022-07-09T05:27:04;20.60;99.90
13354;DHT22;6746;50.892;4.064;2022-07-09T05:29:42;21.00;99.90
13354;DHT22;6746;50.892;4.064;2022-07-09T05:32:20;21.20;99.90
13354;DHT22;6746;50.892;4.064;2022-07-09T05:34:58;21.20;99.90
13354;DHT22;6746;50.892;4.064;2022-07-09T05:37:46;21.40;99.90
13354;DHT22;6746;50.892;4.064;2022-07-09T05:40:18;21.50;99.90
13354;DHT22;6746;50.892;4.064;2022-07-09T05:42:52;21.00;99.90
13354;DHT22;6746;50.892;4.064;2022-07-09T05:45:31;21.50;99.90
13354;DHT22;6746;50.892;4.064;2022-07-09T05:48:09;21.90;99.90
13354;DHT22;6746;50.892;4.064;2022-07-09T05:50:47;22.50;99.90
13354;DHT22;6746;50.892;4.064;2022-07-09T05:53:23;22.50;99.90
13354;DHT22;6746;50.892;4.064;2022-07-09T05:55:52;22.80;99.90
13354;DHT22;6746;50.892;4.064;2022-07-09T05:58:21;23.10;99.90
13354;DHT22;6746;50.892;4.064;2022-07-09T06:00:50;23.50;99.90
13354;DHT22;6746;50.892;4.064;2022-07-09T06:03:39;23.40;99.90
13354;DHT22;6746;50.892;4.064;2022-07-09T06:06:17;23.50;99.90
13354;DHT22;6746;50.892;4.064;2022-07-09T06:08:55;23.50;99.90
13354;DHT22;6746;50.892;4.064;2022-07-09T06:11:33;23.90;99.90
13354;DHT22;6746;50.892;4.064;2022-07-09T06:14:12;24.30;99.90
13354;DHT22;6746;50.892;4.064;2022-07-09T06:16:50;24.60;99.90
13354;DHT22;6746;50.892;4.064;2022-07-09T06:19:28;24.90;99.90
13354;DHT22;6746;50.892;4.064;2022-07-09T06:22:06;25.10;99.90
13354;DHT22;6746;50.892;4.064;2022-07-09T06:24:54;24.60;99.90
13354;DHT22;6746;50.892;4.064;2022-07-09T06:27:32;24.50;99.90
13354;DHT22;6746;50.892;4.064;2022-07-09T06:30:10;24.30;99.90
13354;DHT22;6746;50.892;4.064;2022-07-09T06:32:48;24.50;99.90
13354;DHT22;6746;50.892;4.064;2022-07-09T06:35:27;24.70;99.90
13354;DHT22;6746;50.892;4.064;2022-07-09T06:38:05;25.10;99.90
13354;DHT22;6746;50.892;4.064;2022-07-09T06:40:43;25.50;99.90
13354;DHT22;6746;50.892;4.064;2022-07-09T06:43:21;25.90;99.90
13354;DHT22;6746;50.892;4.064;2022-07-09T06:46:09;26.00;99.90
13354;DHT22;6746;50.892;4.064;2022-07-09T06:48:47;25.50;99.90
13354;DHT22;6746;50.892;4.064;2022-07-09T06:51:26;25.50;99.90
13354;DHT22;6746;50.892;4.064;2022-07-09T06:54:04;25.40;99.90
13354;DHT22;6746;50.892;4.064;2022-07-09T06:56:42;25.40;99.90
13354;DHT22;6746;50.892;4.064;2022-07-09T06:59:20;25.60;99.90
13354;DHT22;6746;50.892;4.064;2022-07-09T07:01:58;25.80;99.90
13354;DHT22;6746;50.892;4.064;2022-07-09T07:04:32;25.90;99.90
13354;DHT22;6746;50.892;4.064;2022-07-09T07:07:01;26.10;99.90
13354;DHT22;6746;50.892;4.064;2022-07-09T07:09:36;26.10;99.90
13354;DHT22;6746;50.892;4.064;2022-07-09T07:12:05;26.30;99.90
13354;DHT22;6746;50.892;4.064;2022-07-09T07:14:34;25.90;99.90
13354;DHT22;6746;50.892;4.064;2022-07-09T07:17:03;25.70;99.90
13354;DHT22;6746;50.892;4.064;2022-07-09T07:19:40;25.50;99.90
13354;DHT22;6746;50.892;4.064;2022-07-09T07:22:08;25.60;99.90
13354;DHT22;6746;50.892;4.064;2022-07-09T07:27:16;25.60;99.90
13354;DHT22;6746;50.892;4.064;2022-07-09T07:29:45;25.50;99.90
13354;DHT22;6746;50.892;4.064;2022-07-09T07:32:14;25.30;99.90
13354;DHT22;6746;50.892;4.064;2022-07-09T07:34:43;25.10;99.90
13354;DHT22;6746;50.892;4.064;2022-07-09T07:37:22;24.60;99.90
13354;DHT22;6746;50.892;4.064;2022-07-09T07:39:58;24.30;99.90
13354;DHT22;6746;50.892;4.064;2022-07-09T07:42:29;23.80;99.90
13354;DHT22;6746;50.892;4.064;2022-07-09T07:44:58;24.10;99.90
13354;DHT22;6746;50.892;4.064;2022-07-09T07:47:28;24.40;99.90
13354;DHT22;6746;50.892;4.064;2022-07-09T07:50:02;24.30;99.90
13354;DHT22;6746;50.892;4.064;2022-07-09T07:52:31;24.40;99.90
13354;DHT22;6746;50.892;4.064;2022-07-09T07:55:09;24.50;99.90
13354;DHT22;6746;50.892;4.064;2022-07-09T07:57:47;24.30;99.90
13354;DHT22;6746;50.892;4.064;2022-07-09T08:00:16;24.80;99.90
13354;DHT22;6746;50.892;4.064;2022-07-09T08:02:44;25.20;99.90
13354;DHT22;6746;50.892;4.064;2022-07-09T08:05:23;25.50;99.90
13354;DHT22;6746;50.892;4.064;2022-07-09T08:08:11;25.80;99.90
13354;DHT22;6746;50.892;4.064;2022-07-09T08:10:42;26.00;99.90
13354;DHT22;6746;50.892;4.064;2022-07-09T08:13:11;26.30;99.90
13354;DHT22;6746;50.892;4.064;2022-07-09T08:15:50;26.30;99.90
13354;DHT22;6746;50.892;4.064;2022-07-09T08:18:18;26.20;99.90
13354;DHT22;6746;50.892;4.064;2022-07-09T08:20:47;26.00;99.90
13354;DHT22;6746;50.892;4.064;2022-07-09T08:23:15;26.00;99.90
13354;DHT22;6746;50.892;4.064;2022-07-09T08:25:44;25.70;99.90
13354;DHT22;6746;50.892;4.064;2022-07-09T08:28:13;25.60;99.90
13354;DHT22;6746;50.892;4.064;2022-07-09T08:30:42;25.70;99.90
13354;DHT22;6746;50.892;4.064;2022-07-09T08:33:19;26.00;99.90
13354;DHT22;6746;50.892;4.064;2022-07-09T08:35:50;25.70;99.90
13354;DHT22;6746;50.892;4.064;2022-07-09T08:38:28;25.90;99.90
13354;DHT22;6746;50.892;4.064;2022-07-09T08:41:06;26.40;99.90
13354;DHT22;6746;50.892;4.064;2022-07-09T08:43:38;26.40;99.90
13354;DHT22;6746;50.892;4.064;2022-07-09T08:46:06;26.90;99.90
13354;DHT22;6746;50.892;4.064;2022-07-09T08:48:36;26.60;99.90
13354;DHT22;6746;50.892;4.064;2022-07-09T08:51:04;27.00;99.90
13354;DHT22;6746;50.892;4.064;2022-07-09T08:53:42;27.00;99.90
13354;DHT22;6746;50.892;4.064;2022-07-09T08:56:10;27.00;99.90
13354;DHT22;6746;50.892;4.064;2022-07-09T08:58:48;26.80;99.90
13354;DHT22;6746;50.892;4.064;2022-07-09T09:01:26;27.40;99.90
13354;DHT22;6746;50.892;4.064;2022-07-09T09:04:04;26.90;99.90
13354;DHT22;6746;50.892;4.064;2022-07-09T09:06:42;26.60;99.90
13354;DHT22;6746;50.892;4.064;2022-07-09T09:09:17;27.00;99.90
13354;DHT22;6746;50.892;4.064;2022-07-09T09:11:40;26.10;99.90
13354;DHT22;6746;50.892;4.064;2022-07-09T09:14:21;25.60;99.90
13354;DHT22;6746;50.892;4.064;2022-07-09T09:16:50;26.00;99.90
13354;DHT22;6746;50.892;4.064;2022-07-09T09:19:19;25.90;99.90
13354;DHT22;6746;50.892;4.064;2022-07-09T09:21:51;25.50;99.90
13354;DHT22;6746;50.892;4.064;2022-07-09T09:24:22;25.40;99.90
13354;DHT22;6746;50.892;4.064;2022-07-09T09:27:01;25.00;99.90
13354;DHT22;6746;50.892;4.064;2022-07-09T09:29:25;24.80;99.90
13354;DHT22;6746;50.892;4.064;2022-07-09T09:31:54;25.60;99.90
13354;DHT22;6746;50.892;4.064;2022-07-09T09:34:23;26.30;99.90
13354;DHT22;6746;50.892;4.064;2022-07-09T09:37:01;26.40;99.90
13354;DHT22;6746;50.892;4.064;2022-07-09T09:39:48;25.40;99.90
13354;DHT22;6746;50.892;4.064;2022-07-09T09:42:11;25.20;99.90
13354;DHT22;6746;50.892;4.064;2022-07-09T09:44:39;25.00;99.90
13354;DHT22;6746;50.892;4.064;2022-07-09T09:47:18;25.30;99.90
13354;DHT22;6746;50.892;4.064;2022-07-09T09:49:45;25.80;99.90
13354;DHT22;6746;50.892;4.064;2022-07-09T09:52:14;26.10;99.90
13354;DHT22;6746;50.892;4.064;2022-07-09T09:54:43;26.60;99.90
13354;DHT22;6746;50.892;4.064;2022-07-09T09:57:12;26.60;99.90
13354;DHT22;6746;50.892;4.064;2022-07-09T09:59:41;26.20;99.90
13354;DHT22;6746;50.892;4.064;2022-07-09T10:02:19;25.50;99.90
13354;DHT22;6746;50.892;4.064;2022-07-09T10:04:53;25.50;99.90
13354;DHT22;6746;50.892;4.064;2022-07-09T10:07:22;25.90;99.90
13354;DHT22;6746;50.892;4.064;2022-07-09T10:09:54;25.80;99.90
13354;DHT22;6746;50.892;4.064;2022-07-09T10:12:28;25.70;99.90
13354;DHT22;6746;50.892;4.064;2022-07-09T10:14:56;25.50;99.90
13354;DHT22;6746;50.892;4.064;2022-07-09T10:17:25;25.20;99.90
13354;DHT22;6746;50.892;4.064;2022-07-09T10:20:05;24.80;99.90
13354;DHT22;6746;50.892;4.064;2022-07-09T10:22:34;24.40;99.90
13354;DHT22;6746;50.892;4.064;2022-07-09T10:25:13;24.20;99.90
13354;DHT22;6746;50.892;4.064;2022-07-09T10:27:44;24.50;99.90
13354;DHT22;6746;50.892;4.064;2022-07-09T10:33:11;24.60;99.90
13354;DHT22;6746;50.892;4.064;2022-07-09T10:35:52;24.90;99.90
13354;DHT22;6746;50.892;4.064;2022-07-09T10:38:16;24.30;99.90
13354;DHT22;6746;50.892;4.064;2022-07-09T10:40:55;24.30;99.90
13354;DHT22;6746;50.892;4.064;2022-07-09T10:43:16;24.80;99.90
13354;DHT22;6746;50.892;4.064;2022-07-09T10:45:48;25.00;99.90
13354;DHT22;6746;50.892;4.064;2022-07-09T10:48:17;25.00;99.90
13354;DHT22;6746;50.892;4.064;2022-07-09T10:50:52;25.00;99.90
13354;DHT22;6746;50.892;4.064;2022-07-09T10:53:27;25.20;99.90
13354;DHT22;6746;50.892;4.064;2022-07-09T10:55:59;25.20;99.90
13354;DHT22;6746;50.892;4.064;2022-07-09T10:58:30;25.40;99.90
13354;DHT22;6746;50.892;4.064;2022-07-09T11:01:00;25.40;99.90
13354;DHT22;6746;50.892;4.064;2022-07-09T11:03:31;25.30;99.90
13354;DHT22;6746;50.892;4.064;2022-07-09T11:06:01;25.10;99.90
13354;DHT22;6746;50.892;4.064;2022-07-09T11:08:29;25.00;99.90
13354;DHT22;6746;50.892;4.064;2022-07-09T11:10:58;25.30;99.90
13354;DHT22;6746;50.892;4.064;2022-07-09T11:13:30;25.40;99.90
13354;DHT22;6746;50.892;4.064;2022-07-09T11:15:59;25.00;99.90
13354;DHT22;6746;50.892;4.064;2022-07-09T11:18:28;25.10;99.90
13354;DHT22;6746;50.892;4.064;2022-07-09T11:20:57;24.60;99.90
13354;DHT22;6746;50.892;4.064;2022-07-09T11:23:26;24.40;99.90
13354;DHT22;6746;50.892;4.064;2022-07-09T11:25:55;24.30;99.90
13354;DHT22;6746;50.892;4.064;2022-07-09T11:28:27;24.30;99.90
13354;DHT22;6746;50.892;4.064;2022-07-09T11:30:59;24.60;99.90
13354;DHT22;6746;50.892;4.064;2022-07-09T11:33:28;24.80;99.90
13354;DHT22;6746;50.892;4.064;2022-07-09T11:35:57;24.20;99.90
13354;DHT22;6746;50.892;4.064;2022-07-09T11:38:26;24.10;99.90
13354;DHT22;6746;50.892;4.064;2022-07-09T11:41:00;24.20;99.90
13354;DHT22;6746;50.892;4.064;2022-07-09T11:43:29;24.40;99.90
13354;DHT22;6746;50.892;4.064;2022-07-09T11:45:58;24.40;99.90
13354;DHT22;6746;50.892;4.064;2022-07-09T11:48:35;24.30;99.90
13354;DHT22;6746;50.892;4.064;2022-07-09T11:51:04;24.30;99.90
13354;DHT22;6746;50.892;4.064;2022-07-09T11:53:35;24.50;99.90
13354;DHT22;6746;50.892;4.064;2022-07-09T11:56:04;24.80;99.90
13354;DHT22;6746;50.892;4.064;2022-07-09T11:58:48;24.50;99.90
13354;DHT22;6746;50.892;4.064;2022-07-09T12:01:14;24.30;99.90
13354;DHT22;6746;50.892;4.064;2022-07-09T12:03:48;24.30;99.90
13354;DHT22;6746;50.892;4.064;2022-07-09T12:09:02;23.80;99.90
13354;DHT22;6746;50.892;4.064;2022-07-09T12:11:30;24.00;99.90
13354;DHT22;6746;50.892;4.064;2022-07-09T12:14:02;24.00;99.90
13354;DHT22;6746;50.892;4.064;2022-07-09T12:16:31;23.80;99.90
13354;DHT22;6746;50.892;4.064;2022-07-09T12:19:00;23.60;99.90
13354;DHT22;6746;50.892;4.064;2022-07-09T12:21:29;23.30;99.90
13354;DHT22;6746;50.892;4.064;2022-07-09T12:24:01;23.30;99.90
13354;DHT22;6746;50.892;4.064;2022-07-09T12:26:30;23.10;99.90
13354;DHT22;6746;50.892;4.064;2022-07-09T12:29:08;23.20;99.90
13354;DHT22;6746;50.892;4.064;2022-07-09T12:31:37;23.40;99.90
13354;DHT22;6746;50.892;4.064;2022-07-09T12:34:05;23.70;99.90
13354;DHT22;6746;50.892;4.064;2022-07-09T12:36:34;24.20;99.90
13354;DHT22;6746;50.892;4.064;2022-07-09T12:39:03;23.80;99.90
13354;DHT22;6746;50.892;4.064;2022-07-09T12:41:32;23.80;99.90
13354;DHT22;6746;50.892;4.064;2022-07-09T12:44:03;23.80;99.90
13354;DHT22;6746;50.892;4.064;2022-07-09T12:46:42;23.60;99.90
13354;DHT22;6746;50.892;4.064;2022-07-09T12:49:20;23.60;99.90
13354;DHT22;6746;50.892;4.064;2022-07-09T12:51:49;23.70;99.90
13354;DHT22;6746;50.892;4.064;2022-07-09T12:54:17;23.60;99.90
13354;DHT22;6746;50.892;4.064;2022-07-09T12:56:49;23.60;99.90
13354;DHT22;6746;50.892;4.064;2022-07-09T12:59:18;23.50;99.90
13354;DHT22;6746;50.892;4.064;2022-07-09T13:01:50;23.40;99.90
13354;DHT22;6746;50.892;4.064;2022-07-09T13:04:19;23.30;99.90
13354;DHT22;6746;50.892;4.064;2022-07-09T13:06:56;23.30;99.90
13354;DHT22;6746;50.892;4.064;2022-07-09T13:09:24;23.00;99.90
13354;DHT22;6746;50.892;4.064;2022-07-09T13:12:00;23.00;99.90
13354;DHT22;6746;50.892;4.064;2022-07-09T13:14:29;23.30;99.90
13354;DHT22;6746;50.892;4.064;2022-07-09T13:16:58;23.30;99.90
13354;DHT22;6746;50.892;4.064;2022-07-09T13:19:26;22.90;99.90
13354;DHT22;6746;50.892;4.064;2022-07-09T13:21:58;22.80;99.90
13354;DHT22;6746;50.892;4.064;2022-07-09T13:24:27;22.70;99.90
13354;DHT22;6746;50.892;4.064;2022-07-09T13:26:56;22.80;99.90
13354;DHT22;6746;50.892;4.064;2022-07-09T13:29:28;22.90;99.90
13354;DHT22;6746;50.892;4.064;2022-07-09T13:32:07;23.20;99.90
13354;DHT22;6746;50.892;4.064;2022-07-09T13:34:45;23.60;99.90
13354;DHT22;6746;50.892;4.064;2022-07-09T13:37:23;23.60;99.90
13354;DHT22;6746;50.892;4.064;2022-07-09T13:40:01;23.40;99.90
13354;DHT22;6746;50.892;4.064;2022-07-09T13:42:39;23.40;99.90
13354;DHT22;6746;50.892;4.064;2022-07-09T13:45:17;23.10;99.90
13354;DHT22;6746;50.892;4.064;2022-07-09T13:47:56;23.40;99.90
13354;DHT22;6746;50.892;4.064;2022-07-09T13:50:35;23.70;99.90
13354;DHT22;6746;50.892;4.064;2022-07-09T13:53:06;23.60;99.90
13354;DHT22;6746;50.892;4.064;2022-07-09T13:55:45;23.90;99.90
13354;DHT22;6746;50.892;4.064;2022-07-09T13:58:23;23.60;99.90
13354;DHT22;6746;50.892;4.064;2022-07-09T14:01:01;23.50;99.90
13354;DHT22;6746;50.892;4.064;2022-07-09T14:03:29;22.60;99.90
13354;DHT22;6746;50.892;4.064;2022-07-09T14:05:58;22.30;99.90
13354;DHT22;6746;50.892;4.064;2022-07-09T14:08:36;22.30;99.90
13354;DHT22;6746;50.892;4.064;2022-07-09T14:11:24;22.40;99.90
13354;DHT22;6746;50.892;4.064;2022-07-09T14:14:04;22.60;99.90
13354;DHT22;6746;50.892;4.064;2022-07-09T14:16:43;22.80;99.90
13354;DHT22;6746;50.892;4.064;2022-07-09T14:19:21;22.60;99.90
13354;DHT22;6746;50.892;4.064;2022-07-09T14:21:57;22.70;99.90
13354;DHT22;6746;50.892;4.064;2022-07-09T14:24:26;22.40;99.90
13354;DHT22;6746;50.892;4.064;2022-07-09T14:27:04;22.30;99.90
13354;DHT22;6746;50.892;4.064;2022-07-09T14:29:42;22.50;99.90
13354;DHT22;6746;50.892;4.064;2022-07-09T14:32:28;22.70;99.90
13354;DHT22;6746;50.892;4.064;2022-07-09T14:34:57;22.90;99.90
13354;DHT22;6746;50.892;4.064;2022-07-09T14:37:35;22.80;99.90
13354;DHT22;6746;50.892;4.064;2022-07-09T14:40:14;22.60;99.90
13354;DHT22;6746;50.892;4.064;2022-07-09T14:42:45;22.70;99.90
13354;DHT22;6746;50.892;4.064;2022-07-09T14:45:13;22.70;99.90
13354;DHT22;6746;50.892;4.064;2022-07-09T14:47:52;22.50;99.90
13354;DHT22;6746;50.892;4.064;2022-07-09T14:50:29;22.60;99.90
13354;DHT22;6746;50.892;4.064;2022-07-09T14:52:57;22.70;99.90
13354;DHT22;6746;50.892;4.064;2022-07-09T14:55:27;22.50;99.90
13354;DHT22;6746;50.892;4.064;2022-07-09T14:57:55;22.40;99.90
13354;DHT22;6746;50.892;4.064;2022-07-09T15:00:24;22.20;99.90
13354;DHT22;6746;50.892;4.064;2022-07-09T15:02:53;22.30;99.90
13354;DHT22;6746;50.892;4.064;2022-07-09T15:05:32;22.20;99.90
13354;DHT22;6746;50.892;4.064;2022-07-09T15:08:06;21.70;99.90
13354;DHT22;6746;50.892;4.064;2022-07-09T15:10:34;21.80;99.90
13354;DHT22;6746;50.892;4.064;2022-07-09T15:13:06;21.90;99.90
13354;DHT22;6746;50.892;4.064;2022-07-09T15:15:35;22.20;99.90
13354;DHT22;6746;50.892;4.064;2022-07-09T15:18:14;22.10;99.90
13354;DHT22;6746;50.892;4.064;2022-07-09T15:20:52;22.20;99.90
13354;DHT22;6746;50.892;4.064;2022-07-09T15:23:30;22.30;99.90
13354;DHT22;6746;50.892;4.064;2022-07-09T15:26:08;22.20;99.90
13354;DHT22;6746;50.892;4.064;2022-07-09T15:28:46;22.50;99.90
13354;DHT22;6746;50.892;4.064;2022-07-09T15:31:25;22.50;99.90
13354;DHT22;6746;50.892;4.064;2022-07-09T15:34:03;22.20;99.90
13354;DHT22;6746;50.892;4.064;2022-07-09T15:36:50;21.90;99.90
13354;DHT22;6746;50.892;4.064;2022-07-09T15:39:28;22.10;99.90
13354;DHT22;6746;50.892;4.064;2022-07-09T15:42:06;22.20;99.90
13354;DHT22;6746;50.892;4.064;2022-07-09T15:44:44;22.30;99.90
13354;DHT22;6746;50.892;4.064;2022-07-09T15:47:23;22.50;99.90
13354;DHT22;6746;50.892;4.064;2022-07-09T15:50:01;22.50;99.90
13354;DHT22;6746;50.892;4.064;2022-07-09T15:52:39;22.80;99.90
13354;DHT22;6746;50.892;4.064;2022-07-09T15:55:20;22.70;99.90
13354;DHT22;6746;50.892;4.064;2022-07-09T15:58:08;22.60;99.90
13354;DHT22;6746;50.892;4.064;2022-07-09T16:00:36;22.50;99.90
13354;DHT22;6746;50.892;4.064;2022-07-09T16:03:06;22.50;99.90
13354;DHT22;6746;50.892;4.064;2022-07-09T16:05:44;22.40;99.90
13354;DHT22;6746;50.892;4.064;2022-07-09T16:08:22;21.80;99.90
13354;DHT22;6746;50.892;4.064;2022-07-09T16:10:59;21.80;99.90
13354;DHT22;6746;50.892;4.064;2022-07-09T16:13:45;22.00;99.90
13354;DHT22;6746;50.892;4.064;2022-07-09T16:16:19;22.20;99.90
13354;DHT22;6746;50.892;4.064;2022-07-09T16:18:58;22.40;99.90
13354;DHT22;6746;50.892;4.064;2022-07-09T16:21:36;22.20;99.90
13354;DHT22;6746;50.892;4.064;2022-07-09T16:24:14;22.30;99.90
13354;DHT22;6746;50.892;4.064;2022-07-09T16:26:53;22.40;99.90
13354;DHT22;6746;50.892;4.064;2022-07-09T16:29:31;22.30;99.90
13354;DHT22;6746;50.892;4.064;2022-07-09T16:32:09;22.20;99.90
13354;DHT22;6746;50.892;4.064;2022-07-09T16:34:47;22.10;99.90
13354;DHT22;6746;50.892;4.064;2022-07-09T16:37:35;22.10;99.90
13354;DHT22;6746;50.892;4.064;2022-07-09T16:40:13;22.10;99.90
13354;DHT22;6746;50.892;4.064;2022-07-09T16:43:01;21.90;99.90
13354;DHT22;6746;50.892;4.064;2022-07-09T16:45:38;21.70;99.90
13354;DHT22;6746;50.892;4.064;2022-07-09T16:48:12;21.80;99.90